createdAt,value
2023-01-05T00:08:38.139Z,98516.91
2023-01-05T00:18:57.825Z,98502.85
2023-01-05T00:29:03.705Z,98494.98
2023-01-05T00:39:09.899Z,98482.87
2023-01-05T00:49:15.723Z,98469.44
2023-01-05T00:59:21.480Z,98459.11
2023-01-05T01:09:27.361Z,98445.14
2023-01-05T01:19:33.805Z,98420.41
2023-01-05T01:29:39.689Z,98407.53
2023-01-05T01:39:45.494Z,98390.74
2023-01-05T01:49:52.191Z,98382.16
2023-01-05T02:00:00.249Z,98365.30
2023-01-05T02:10:08.039Z,98350.27
2023-01-05T02:20:46.947Z,98351.67
2023-01-05T02:31:09.137Z,98345.36
2023-01-05T02:41:22.915Z,98336.95
2023-01-05T02:51:32.777Z,98337.20
2023-01-05T03:01:41.834Z,98313.70
2023-01-05T03:12:14.653Z,98313.81
2023-01-05T03:22:41.586Z,98310.94
2023-01-05T03:33:12.268Z,98319.24
2023-01-05T03:43:18.416Z,98322.74
2023-01-05T03:53:24.289Z,98325.03
2023-01-05T04:03:32.105Z,98304.48
2023-01-05T04:13:38.268Z,98311.79
2023-01-05T04:23:44.078Z,98307.65
2023-01-05T04:33:49.900Z,98310.89
2023-01-05T04:43:55.667Z,98319.95
2023-01-05T04:54:01.483Z,98324.88
2023-01-05T05:04:07.401Z,98340.73
2023-01-05T05:14:13.173Z,98332.60
2023-01-05T05:24:18.990Z,98331.68
2023-01-05T05:34:24.895Z,98332.53
2023-01-05T05:44:30.722Z,98330.33
2023-01-05T05:54:36.731Z,98333.08
2023-01-05T06:04:42.523Z,98337.73
2023-01-05T06:14:48.277Z,98341.48
2023-01-05T06:24:55.094Z,98340.11
2023-01-05T06:35:01.058Z,98338.09
2023-01-05T06:45:08.701Z,98341.34
2023-01-05T06:55:15.095Z,98341.72
2023-01-05T07:05:23.325Z,98348.58
2023-01-05T07:15:29.027Z,98360.62
2023-01-05T07:25:34.977Z,98367.58
2023-01-05T07:35:40.795Z,98374.27
2023-01-05T07:45:46.459Z,98370.66
2023-01-05T07:56:02.741Z,98377.16
2023-01-05T08:06:11.161Z,98383.05
2023-01-05T08:16:17.226Z,98391.17
2023-01-05T08:26:24.497Z,98396.14
2023-01-05T08:36:31.363Z,98409.11
2023-01-05T08:46:38.071Z,98413.88
2023-01-05T08:56:44.287Z,98416.05
2023-01-05T09:06:50.059Z,98428.00
2023-01-05T09:17:11.184Z,98441.00
2023-01-05T09:27:17.044Z,98443.94
2023-01-05T09:37:22.959Z,98434.33
2023-01-05T09:47:31.588Z,98431.88
2023-01-05T09:57:37.934Z,98435.10
2023-01-05T10:07:48.679Z,98428.33
2023-01-05T10:17:54.801Z,98424.17
2023-01-05T10:28:12.053Z,98424.45
2023-01-05T10:38:31.463Z,98427.91
2023-01-05T10:48:38.437Z,98429.45
2023-01-05T10:58:46.955Z,98431.22
2023-01-05T11:08:53.071Z,98435.77
2023-01-05T11:19:01.690Z,98436.19
2023-01-05T11:29:15.648Z,98426.44
2023-01-05T11:39:30.157Z,98429.69
2023-01-05T11:49:36.710Z,98447.89
2023-01-05T11:59:42.660Z,98451.19
2023-01-05T12:09:55.282Z,98443.05
2023-01-05T12:20:22.953Z,98452.05
2023-01-05T12:41:14.944Z,98469.38
2023-01-05T12:51:24.169Z,98466.59
2023-01-05T13:01:35.197Z,98469.70
2023-01-05T13:11:46.883Z,98470.52
2023-01-05T13:21:54.980Z,98476.80
2023-01-05T13:32:26.659Z,98477.28
2023-01-05T13:42:54.273Z,98487.71
2023-01-05T13:53:08.077Z,98498.36
2023-01-05T14:03:24.463Z,98511.95
2023-01-05T14:13:48.467Z,98522.73
2023-01-05T14:24:00.254Z,98536.33
2023-01-05T14:34:09.715Z,98540.55
2023-01-05T14:44:21.492Z,98551.58
2023-01-05T14:55:27.092Z,98568.20
2023-01-05T15:05:43.903Z,98574.91
2023-01-05T15:15:55.600Z,98582.23
2023-01-05T15:26:38.362Z,98587.47
2023-01-05T15:36:50.286Z,98593.34
2023-01-05T15:46:56.340Z,98602.90
2023-01-05T15:57:03.240Z,98616.30
2023-01-05T16:07:12.009Z,98614.80
2023-01-05T16:17:22.181Z,98644.13
2023-01-05T16:27:28.451Z,98675.21
2023-01-05T16:37:34.316Z,98712.73
2023-01-05T16:47:42.514Z,98747.66
2023-01-05T16:57:48.268Z,98762.77
2023-01-05T17:08:03.461Z,98807.25
2023-01-05T17:18:18.650Z,98840.39
2023-01-05T17:28:25.109Z,98876.39
2023-01-05T17:38:31.150Z,98887.30
2023-01-05T17:48:37.047Z,98923.20
2023-01-05T17:58:42.961Z,98944.63
2023-01-05T18:08:48.751Z,98953.67
2023-01-05T18:18:54.814Z,98975.70
2023-01-05T18:29:00.582Z,98995.15
2023-01-05T18:39:07.082Z,99013.51
2023-01-05T18:49:13.366Z,99036.56
2023-01-05T18:59:19.231Z,99056.71
2023-01-05T19:09:24.993Z,99086.80
2023-01-05T19:19:31.005Z,99108.05
2023-01-05T19:29:36.829Z,99125.23
2023-01-05T19:39:42.548Z,99142.74
2023-01-05T19:49:48.435Z,99157.95
2023-01-05T19:59:54.529Z,99178.08
2023-01-05T20:10:00.361Z,99191.16
2023-01-05T20:20:07.239Z,99199.31
2023-01-05T20:30:15.036Z,99211.48
2023-01-05T20:40:20.895Z,99225.17
2023-01-05T20:50:26.841Z,99246.05
2023-01-05T21:00:32.910Z,99268.43
2023-01-05T21:10:39.671Z,99294.13
2023-01-05T21:20:45.480Z,99309.23
2023-01-05T21:30:51.402Z,99327.02
2023-01-05T21:41:05.261Z,99343.95
2023-01-05T21:51:31.988Z,99367.95
2023-01-05T22:01:39.293Z,99388.05
2023-01-05T22:11:45.593Z,99411.62
2023-01-05T22:21:51.292Z,99429.83
2023-01-05T22:31:58.402Z,99448.91
2023-01-05T22:42:05.004Z,99472.73
2023-01-05T22:52:10.895Z,99502.44
2023-01-05T23:02:16.911Z,99528.51
2023-01-05T23:12:22.858Z,99551.38
2023-01-05T23:22:28.583Z,99571.80
2023-01-05T23:32:34.686Z,99584.84
2023-01-05T23:42:47.142Z,99594.70
2023-01-05T23:52:52.987Z,99613.20
